createdAt,value
2019-03-31T00:00:40.863Z,43.60
2019-03-31T00:03:11.148Z,43.50
2019-03-31T00:05:41.505Z,43.60
2019-03-31T00:08:11.724Z,43.50
2019-03-31T00:10:42.047Z,43.50
2019-03-31T00:13:12.374Z,43.60
2019-03-31T00:15:42.799Z,43.50
2019-03-31T00:18:13.124Z,44.20
2019-03-31T00:20:43.557Z,43.50
2019-03-31T00:23:13.998Z,43.60
2019-03-31T00:25:49.083Z,43.60
2019-03-31T00:28:19.959Z,43.50
2019-03-31T00:30:50.467Z,43.50
2019-03-31T00:33:20.877Z,43.50
2019-03-31T00:35:51.587Z,43.40
2019-03-31T00:38:21.874Z,43.50
2019-03-31T00:40:52.087Z,43.50
2019-03-31T00:43:22.412Z,43.40
2019-03-31T00:45:52.843Z,43.40
2019-03-31T00:48:23.063Z,43.40
2019-03-31T00:50:53.278Z,43.50
2019-03-31T00:53:23.613Z,43.60
2019-03-31T00:55:54.038Z,43.30
2019-03-31T00:58:24.365Z,43.40
2019-03-31T01:01:14.730Z,43.30
2019-03-31T01:03:45.464Z,43.30
2019-03-31T01:06:16.802Z,43.30
2019-03-31T01:08:47.069Z,43.30
2019-03-31T01:11:19.751Z,43.30
2019-03-31T01:13:49.956Z,43.40
2019-03-31T01:16:20.281Z,43.30
2019-03-31T01:18:50.603Z,43.30
2019-03-31T01:21:21.068Z,43.30
2019-03-31T01:23:51.373Z,43.40
2019-03-31T01:26:22.371Z,43.30
2019-03-31T01:28:53.236Z,43.30
2019-03-31T01:31:23.481Z,43.20
2019-03-31T01:33:53.931Z,43.20
2019-03-31T01:36:24.330Z,43.20
2019-03-31T01:38:54.531Z,43.10
2019-03-31T01:41:24.840Z,43.10
2019-03-31T01:43:55.044Z,43.00
2019-03-31T01:46:25.794Z,43.00
2019-03-31T01:48:56.136Z,43.00
2019-03-31T01:51:26.367Z,43.10
2019-03-31T01:53:56.784Z,43.80
2019-03-31T01:56:27.077Z,43.00
2019-03-31T01:58:57.256Z,43.00
2019-03-31T02:01:27.841Z,42.90
2019-03-31T02:03:58.700Z,43.00
2019-03-31T02:06:29.129Z,42.90
2019-03-31T02:08:59.316Z,43.00
2019-03-31T02:11:29.505Z,43.00
2019-03-31T02:13:59.801Z,43.00
2019-03-31T02:16:30.115Z,42.90
2019-03-31T02:19:00.338Z,42.90
2019-03-31T02:21:30.773Z,42.80
2019-03-31T02:24:01.097Z,43.50
2019-03-31T02:26:31.416Z,42.90
2019-03-31T02:29:01.741Z,42.90
2019-03-31T02:31:32.004Z,43.40
2019-03-31T02:34:02.289Z,43.00
2019-03-31T02:36:33.563Z,42.80
2019-03-31T02:39:03.802Z,43.30
2019-03-31T02:41:34.185Z,42.80
2019-03-31T02:44:04.376Z,42.80
2019-03-31T02:46:34.605Z,42.80
2019-03-31T02:49:04.869Z,42.80
2019-03-31T02:51:35.074Z,42.80
2019-03-31T02:54:05.482Z,42.90
2019-03-31T02:56:35.824Z,42.80
2019-03-31T02:59:06.161Z,42.80
2019-03-31T03:01:36.420Z,42.80
2019-03-31T03:04:08.097Z,42.80
2019-03-31T03:06:38.491Z,42.70
2019-03-31T03:09:08.773Z,42.80
2019-03-31T03:11:39.097Z,42.70
2019-03-31T03:14:09.318Z,42.70
2019-03-31T03:16:39.767Z,42.70
2019-03-31T03:19:10.071Z,42.70
2019-03-31T03:21:40.518Z,42.80
2019-03-31T03:24:13.096Z,42.70
2019-03-31T03:26:43.512Z,42.80
2019-03-31T03:29:13.730Z,42.70
2019-03-31T03:31:44.162Z,42.70
2019-03-31T03:34:14.477Z,42.70
2019-03-31T03:36:44.901Z,42.70
2019-03-31T03:39:15.225Z,42.70
2019-03-31T03:41:45.553Z,42.60
2019-03-31T03:44:15.774Z,43.00
2019-03-31T03:46:46.119Z,42.60
2019-03-31T03:49:16.722Z,42.60
2019-03-31T03:51:47.154Z,42.70
2019-03-31T03:54:17.380Z,42.60
2019-03-31T03:56:47.811Z,42.90
2019-03-31T03:59:18.028Z,42.70
2019-03-31T04:01:48.420Z,42.80
2019-03-31T04:04:18.744Z,43.20
2019-03-31T04:06:49.211Z,42.60
2019-03-31T04:09:19.524Z,42.50
2019-03-31T04:11:49.856Z,42.50
2019-03-31T04:14:20.181Z,42.60
2019-03-31T04:16:50.545Z,42.70
2019-03-31T04:19:20.724Z,43.20
2019-03-31T04:21:51.158Z,42.50
2019-03-31T04:24:21.473Z,42.50
2019-03-31T04:26:51.801Z,42.50
2019-03-31T04:29:22.274Z,42.50
2019-03-31T04:31:52.559Z,42.50
2019-03-31T04:34:22.768Z,42.50
2019-03-31T04:36:53.254Z,42.50
2019-03-31T04:39:23.551Z,42.50
2019-03-31T04:41:53.865Z,42.50
2019-03-31T04:44:24.176Z,42.50
2019-03-31T04:46:54.705Z,42.50
2019-03-31T04:49:25.146Z,42.50
2019-03-31T04:51:55.459Z,42.50
2019-03-31T04:54:25.676Z,42.60
2019-03-31T04:56:56.103Z,42.60
2019-03-31T04:59:26.427Z,42.50
2019-03-31T05:01:56.867Z,42.50
2019-03-31T05:04:27.685Z,42.50
2019-03-31T05:06:58.119Z,42.60
2019-03-31T05:09:28.457Z,42.50
2019-03-31T05:11:58.769Z,42.50
2019-03-31T05:14:29.083Z,42.50
2019-03-31T05:16:59.622Z,42.50
2019-03-31T05:19:29.807Z,42.40
2019-03-31T05:22:00.083Z,42.40
2019-03-31T05:24:30.393Z,42.50
2019-03-31T05:27:00.780Z,42.50
2019-03-31T05:29:30.986Z,42.40
2019-03-31T05:32:01.264Z,42.40
2019-03-31T05:34:31.682Z,42.50
2019-03-31T05:37:02.156Z,42.50
2019-03-31T05:39:32.492Z,42.50
2019-03-31T05:42:02.962Z,42.40
2019-03-31T05:44:33.192Z,42.40
2019-03-31T05:47:03.611Z,42.40
2019-03-31T05:49:33.959Z,42.50
2019-03-31T05:52:04.360Z,43.30
2019-03-31T05:54:35.175Z,42.80
2019-03-31T05:57:05.595Z,43.60
2019-03-31T05:59:35.955Z,43.90
2019-03-31T06:02:06.276Z,44.10
2019-03-31T06:04:36.603Z,44.20
2019-03-31T06:07:07.043Z,44.40
2019-03-31T06:09:37.252Z,44.40
2019-03-31T06:12:07.499Z,44.50
2019-03-31T06:14:37.795Z,44.50
2019-03-31T06:17:08.119Z,44.30
2019-03-31T06:19:38.934Z,44.30
2019-03-31T06:22:09.180Z,44.30
2019-03-31T06:24:39.546Z,44.10
2019-03-31T06:27:09.867Z,44.00
2019-03-31T06:29:40.044Z,43.80
2019-03-31T06:32:10.492Z,43.70
2019-03-31T06:34:47.322Z,43.50
2019-03-31T06:37:12.973Z,43.40
2019-03-31T06:39:43.852Z,43.30
2019-03-31T06:42:14.851Z,43.20
2019-03-31T06:44:45.938Z,43.30
2019-03-31T06:47:17.230Z,43.20
2019-03-31T06:49:48.156Z,43.20
2019-03-31T06:52:19.100Z,43.20
2019-03-31T06:54:49.809Z,43.20
2019-03-31T06:57:20.670Z,43.20
2019-03-31T06:59:51.564Z,43.30
2019-03-31T07:02:22.514Z,43.40
2019-03-31T07:05:01.211Z,43.80
2019-03-31T07:07:28.571Z,43.80
2019-03-31T07:09:59.343Z,43.90
2019-03-31T07:12:29.567Z,44.10
2019-03-31T07:14:59.801Z,44.30
2019-03-31T07:17:30.139Z,44.20
2019-03-31T07:20:00.440Z,44.30
2019-03-31T07:22:30.715Z,44.30
2019-03-31T07:25:01.233Z,44.30
2019-03-31T07:27:31.592Z,44.40
2019-03-31T07:30:01.847Z,44.40
2019-03-31T07:32:32.169Z,44.30
2019-03-31T07:35:02.478Z,44.20
2019-03-31T07:37:46.650Z,44.30
2019-03-31T07:40:08.077Z,44.40
2019-03-31T07:42:38.376Z,44.30
2019-03-31T07:45:08.800Z,45.00
2019-03-31T07:47:39.239Z,44.20
2019-03-31T07:50:10.125Z,44.20
2019-03-31T07:52:40.427Z,44.20
2019-03-31T07:55:10.705Z,44.20
2019-03-31T07:57:41.045Z,44.20
2019-03-31T08:00:14.284Z,44.20
2019-03-31T08:02:44.689Z,43.30
2019-03-31T08:05:15.228Z,44.10
2019-03-31T08:07:45.580Z,44.20
2019-03-31T08:10:16.347Z,44.40
2019-03-31T08:12:46.639Z,44.00
2019-03-31T08:15:16.894Z,44.10
2019-03-31T08:17:47.193Z,44.00
2019-03-31T08:20:17.667Z,44.20
2019-03-31T08:22:48.004Z,44.10
2019-03-31T08:25:18.341Z,44.00
2019-03-31T08:27:48.675Z,44.20
2019-03-31T08:30:20.298Z,44.20
2019-03-31T08:32:50.573Z,44.20
2019-03-31T08:35:20.964Z,44.90
2019-03-31T08:37:51.428Z,44.20
2019-03-31T08:40:21.949Z,44.20
2019-03-31T08:42:52.255Z,44.20
2019-03-31T08:45:22.632Z,44.30
2019-03-31T08:47:52.852Z,44.40
2019-03-31T08:50:23.167Z,44.30
2019-03-31T08:52:53.550Z,44.40
2019-03-31T08:55:23.811Z,44.40
2019-03-31T08:57:54.110Z,44.40
2019-03-31T09:00:43.217Z,44.50
2019-03-31T09:03:13.683Z,44.50
2019-03-31T09:05:44.263Z,44.30
2019-03-31T09:08:14.842Z,44.60
2019-03-31T09:10:45.267Z,44.30
2019-03-31T09:13:16.019Z,44.60
2019-03-31T09:15:46.381Z,44.60
2019-03-31T09:18:16.682Z,44.70
2019-03-31T09:20:46.963Z,44.70
2019-03-31T09:23:17.227Z,44.90
2019-03-31T09:25:47.902Z,44.90
2019-03-31T09:28:18.221Z,44.90
2019-03-31T09:30:48.583Z,44.80
2019-03-31T09:33:18.809Z,44.70
2019-03-31T09:35:49.211Z,44.80
2019-03-31T09:38:19.584Z,44.70
2019-03-31T09:40:49.897Z,44.80
2019-03-31T09:43:20.167Z,44.70
2019-03-31T09:45:51.532Z,43.90
2019-03-31T09:48:24.168Z,44.60
2019-03-31T09:50:56.554Z,44.60
2019-03-31T09:53:26.396Z,44.70
2019-03-31T09:55:56.809Z,44.80
2019-03-31T09:58:27.483Z,45.40
2019-03-31T10:00:57.930Z,44.80
2019-03-31T10:03:28.175Z,44.90
2019-03-31T10:06:10.118Z,45.50
2019-03-31T10:08:31.008Z,44.90
2019-03-31T10:11:02.994Z,45.00
2019-03-31T10:13:33.348Z,45.00
2019-03-31T10:16:03.942Z,45.10
2019-03-31T10:18:34.367Z,44.90
2019-03-31T10:21:04.574Z,45.00
2019-03-31T10:23:34.932Z,44.90
2019-03-31T10:26:05.458Z,44.90
2019-03-31T10:28:35.788Z,45.10
2019-03-31T10:31:06.102Z,44.90
2019-03-31T10:33:36.376Z,44.80
2019-03-31T10:36:06.734Z,44.60
2019-03-31T10:38:37.446Z,46.90
2019-03-31T10:41:07.816Z,48.70
2019-03-31T10:43:38.256Z,49.30
2019-03-31T10:46:08.620Z,49.20
2019-03-31T10:48:38.883Z,48.70
2019-03-31T10:51:09.321Z,49.10
2019-03-31T10:53:39.848Z,49.60
2019-03-31T10:56:10.185Z,48.70
2019-03-31T10:58:40.463Z,48.30
2019-03-31T11:01:10.856Z,48.40
2019-03-31T11:03:41.136Z,47.70
2019-03-31T11:06:12.403Z,49.00
2019-03-31T11:08:42.701Z,48.80
2019-03-31T11:11:12.984Z,48.80
2019-03-31T11:13:43.297Z,48.80
2019-03-31T11:16:13.676Z,48.50
2019-03-31T11:18:44.120Z,48.40
2019-03-31T11:23:51.282Z,47.80
2019-03-31T11:26:21.668Z,48.20
2019-03-31T11:28:52.004Z,48.20
2019-03-31T11:31:22.223Z,48.00
2019-03-31T11:33:52.479Z,47.90
2019-03-31T11:36:22.925Z,47.70
2019-03-31T11:38:53.298Z,47.70
2019-03-31T11:41:24.525Z,47.70
2019-03-31T11:43:54.747Z,47.70
2019-03-31T11:46:25.091Z,47.60
2019-03-31T11:48:55.342Z,47.50
2019-03-31T11:51:25.715Z,47.30
2019-03-31T11:53:55.938Z,47.30
2019-03-31T11:56:26.255Z,47.20
2019-03-31T11:58:56.540Z,47.00
2019-03-31T12:01:26.845Z,46.80
2019-03-31T12:03:57.060Z,46.70
2019-03-31T12:06:28.360Z,46.70
2019-03-31T12:08:58.731Z,46.70
2019-03-31T12:11:29.033Z,46.60
2019-03-31T12:13:59.283Z,47.20
2019-03-31T12:16:29.596Z,46.50
2019-03-31T12:18:59.868Z,46.50
2019-03-31T12:21:30.160Z,46.50
2019-03-31T12:24:00.421Z,46.50
2019-03-31T12:26:30.798Z,46.50
2019-03-31T12:29:19.931Z,46.50
2019-03-31T12:31:50.338Z,46.40
2019-03-31T12:34:20.792Z,46.40
2019-03-31T12:36:51.090Z,46.40
2019-03-31T12:39:21.382Z,46.40
2019-03-31T12:41:51.619Z,46.40
2019-03-31T12:44:24.951Z,46.40
2019-03-31T12:46:56.147Z,46.40
2019-03-31T12:49:25.740Z,46.20
2019-03-31T12:51:56.032Z,46.30
2019-03-31T12:54:26.308Z,46.40
2019-03-31T12:56:56.638Z,46.40
2019-03-31T12:59:27.448Z,46.30
2019-03-31T13:01:58.056Z,46.30
2019-03-31T13:04:28.262Z,46.20
2019-03-31T13:06:58.613Z,46.30
2019-03-31T13:09:28.913Z,46.30
2019-03-31T13:11:59.423Z,46.20
2019-03-31T13:14:29.757Z,46.20
2019-03-31T13:17:01.650Z,46.20
2019-03-31T13:19:32.318Z,46.20
2019-03-31T13:22:02.997Z,46.10
2019-03-31T13:24:33.284Z,46.10
2019-03-31T13:27:03.619Z,46.00
2019-03-31T13:29:34.020Z,46.10
2019-03-31T13:32:04.806Z,46.10
2019-03-31T13:34:35.171Z,45.90
2019-03-31T13:37:05.773Z,46.00
2019-03-31T13:39:36.076Z,46.00
2019-03-31T13:42:06.316Z,46.00
2019-03-31T13:44:36.612Z,46.00
2019-03-31T13:47:06.960Z,45.90
2019-03-31T13:49:37.183Z,46.00
2019-03-31T13:52:07.464Z,45.90
2019-03-31T13:54:37.765Z,45.90
2019-03-31T13:57:08.712Z,46.00
2019-03-31T13:59:39.904Z,45.90
2019-03-31T14:02:10.188Z,45.90
2019-03-31T14:04:51.592Z,45.80
2019-03-31T14:07:12.480Z,45.70
2019-03-31T14:09:42.791Z,46.40
2019-03-31T14:12:13.132Z,46.40
2019-03-31T14:14:43.420Z,45.50
2019-03-31T14:17:13.715Z,45.80
2019-03-31T14:19:44.010Z,45.70
2019-03-31T14:22:20.634Z,45.70
2019-03-31T14:24:54.069Z,45.80
2019-03-31T14:27:24.607Z,45.80
2019-03-31T14:29:54.827Z,45.80
2019-03-31T14:32:25.142Z,45.70
2019-03-31T14:34:55.511Z,45.70
2019-03-31T14:37:45.361Z,45.70
2019-03-31T14:40:15.788Z,45.70
2019-03-31T14:42:46.197Z,45.80
2019-03-31T14:45:32.495Z,45.70
2019-03-31T14:48:03.199Z,45.90
2019-03-31T14:50:37.892Z,46.00
2019-03-31T14:53:08.372Z,46.00
2019-03-31T14:55:38.819Z,46.10
2019-03-31T14:58:09.104Z,46.10
2019-03-31T15:00:39.534Z,46.50
2019-03-31T15:03:09.765Z,48.10
2019-03-31T15:05:40.100Z,48.70
2019-03-31T15:08:10.443Z,47.80
2019-03-31T15:10:40.708Z,49.40
2019-03-31T15:13:10.970Z,49.20
2019-03-31T15:18:10.656Z,50.10
2019-03-31T15:20:40.923Z,50.50
2019-03-31T15:23:11.260Z,50.20
2019-03-31T15:25:43.284Z,50.50
2019-03-31T15:28:13.755Z,50.60
2019-03-31T15:30:44.088Z,50.60
2019-03-31T15:35:43.849Z,50.30
2019-03-31T15:38:15.001Z,52.50
2019-03-31T15:40:48.460Z,51.40
2019-03-31T15:43:18.186Z,50.70
2019-03-31T15:45:48.490Z,50.80
2019-03-31T15:48:18.888Z,50.90
2019-03-31T15:50:49.171Z,50.80
2019-03-31T15:53:19.401Z,50.60
2019-03-31T15:55:49.692Z,50.50
2019-03-31T15:58:20.098Z,50.40
2019-03-31T16:00:50.328Z,50.40
2019-03-31T16:03:20.712Z,50.20
2019-03-31T16:05:51.017Z,50.30
2019-03-31T16:08:20.761Z,50.20
2019-03-31T16:10:50.463Z,50.20
2019-03-31T16:13:20.576Z,50.30
2019-03-31T16:15:50.543Z,50.40
2019-03-31T16:18:20.298Z,50.50
2019-03-31T16:20:50.019Z,50.30
2019-03-31T16:23:19.776Z,50.20
2019-03-31T16:25:52.610Z,50.30
2019-03-31T16:28:22.432Z,51.10
2019-03-31T16:30:52.131Z,50.50
2019-03-31T16:33:21.845Z,50.60
2019-03-31T16:35:51.633Z,50.40
2019-03-31T16:38:21.411Z,50.30
2019-03-31T16:40:51.663Z,50.30
2019-03-31T16:43:21.563Z,50.50
2019-03-31T16:45:51.354Z,50.70
2019-03-31T16:48:21.076Z,50.70
2019-03-31T16:50:50.801Z,50.90
2019-03-31T16:53:20.552Z,51.10
2019-03-31T16:55:50.662Z,54.30
2019-03-31T16:58:26.010Z,52.80
2019-03-31T17:00:55.816Z,52.60
2019-03-31T17:03:25.584Z,54.60
2019-03-31T17:05:55.388Z,52.90
2019-03-31T17:08:25.157Z,52.90
2019-03-31T17:10:54.879Z,52.70
2019-03-31T17:13:24.667Z,52.60
2019-03-31T17:15:54.506Z,52.80
2019-03-31T17:18:24.218Z,52.40
2019-03-31T17:20:54.071Z,52.10
2019-03-31T17:23:23.742Z,51.60
2019-03-31T17:25:53.589Z,51.50
2019-03-31T17:28:23.295Z,51.20
2019-03-31T17:30:53.020Z,51.20
2019-03-31T17:33:22.832Z,51.20
2019-03-31T17:35:52.621Z,51.00
2019-03-31T17:38:22.376Z,50.80
2019-03-31T17:40:52.149Z,51.00
2019-03-31T17:43:21.973Z,50.60
2019-03-31T17:45:51.784Z,50.60
2019-03-31T17:48:21.689Z,50.30
2019-03-31T17:50:51.396Z,50.60
2019-03-31T17:53:21.136Z,51.00
2019-03-31T17:55:50.908Z,50.90
2019-03-31T17:58:20.742Z,50.70
2019-03-31T18:00:50.536Z,51.10
2019-03-31T18:03:20.261Z,51.60
2019-03-31T18:05:50.099Z,51.40
2019-03-31T18:08:19.908Z,51.40
2019-03-31T18:10:49.689Z,51.40
2019-03-31T18:13:19.403Z,51.70
2019-03-31T18:15:49.226Z,51.90
2019-03-31T18:18:18.930Z,52.60
2019-03-31T18:20:48.892Z,52.40
2019-03-31T18:23:18.652Z,53.40
2019-03-31T18:25:48.600Z,52.40
2019-03-31T18:28:18.499Z,52.30
2019-03-31T18:30:48.429Z,52.30
2019-03-31T18:33:18.135Z,51.80
2019-03-31T18:35:48.007Z,52.30
2019-03-31T18:38:17.896Z,51.80
2019-03-31T18:40:49.552Z,51.50
2019-03-31T18:43:19.411Z,51.50
2019-03-31T18:45:49.421Z,51.50
2019-03-31T18:48:19.215Z,51.40
2019-03-31T18:50:48.894Z,52.00
2019-03-31T18:53:31.940Z,52.10
2019-03-31T18:56:12.941Z,51.50
2019-03-31T18:58:54.672Z,51.60
2019-03-31T19:01:43.402Z,51.60
2019-03-31T19:04:37.762Z,52.00
2019-03-31T19:07:26.280Z,51.70
2019-03-31T19:10:23.768Z,51.60
2019-03-31T19:13:12.906Z,51.50
2019-03-31T19:16:07.438Z,51.80
2019-03-31T19:18:58.951Z,51.70
2019-03-31T19:21:47.845Z,51.80
2019-03-31T19:24:39.332Z,51.90
2019-03-31T19:27:32.499Z,51.80
2019-03-31T19:30:19.839Z,52.30
2019-03-31T19:33:01.675Z,51.70
2019-03-31T19:36:02.501Z,51.20
2019-03-31T19:38:45.893Z,50.80
2019-03-31T19:41:43.444Z,50.60
2019-03-31T19:44:33.658Z,50.60
2019-03-31T19:47:25.276Z,50.80
2019-03-31T19:50:11.883Z,51.00
2019-03-31T19:53:09.624Z,51.10
2019-03-31T19:56:07.304Z,51.10
2019-03-31T19:58:48.438Z,51.10
2019-03-31T20:01:39.909Z,51.20
2019-03-31T20:04:31.492Z,51.10
2019-03-31T20:07:18.923Z,51.10
2019-03-31T20:10:22.554Z,51.00
2019-03-31T20:13:11.084Z,51.00
2019-03-31T20:15:56.956Z,50.90
2019-03-31T20:18:34.475Z,50.80
2019-03-31T20:21:32.302Z,50.50
2019-03-31T20:24:19.124Z,50.40
2019-03-31T20:27:08.873Z,50.20
2019-03-31T20:30:06.796Z,50.20
2019-03-31T20:32:54.240Z,50.30
2019-03-31T20:36:01.097Z,50.30
2019-03-31T20:38:55.882Z,50.40
2019-03-31T20:41:43.195Z,50.40
2019-03-31T20:44:13.331Z,50.30
2019-03-31T20:46:43.200Z,50.30
2019-03-31T20:49:12.921Z,50.50
2019-03-31T20:51:42.693Z,50.40
2019-03-31T20:54:12.488Z,50.40
2019-03-31T20:56:44.318Z,50.50
2019-03-31T20:59:14.107Z,50.80
2019-03-31T21:01:43.728Z,50.70
2019-03-31T21:04:13.388Z,50.40
2019-03-31T21:06:43.136Z,50.40
2019-03-31T21:09:13.013Z,50.90
2019-03-31T21:11:42.677Z,50.30
2019-03-31T21:14:12.350Z,50.50
2019-03-31T21:16:42.145Z,50.40
2019-03-31T21:19:11.852Z,50.40
2019-03-31T21:21:41.715Z,50.20
2019-03-31T21:24:11.376Z,50.50
2019-03-31T21:26:41.193Z,50.00
2019-03-31T21:29:10.912Z,49.90
2019-03-31T21:31:40.612Z,49.80
2019-03-31T21:34:10.406Z,49.80
2019-03-31T21:36:40.251Z,49.70
2019-03-31T21:39:10.053Z,49.50
2019-03-31T21:41:39.930Z,49.60
2019-03-31T21:44:09.640Z,49.50
2019-03-31T21:46:39.685Z,49.30
2019-03-31T21:49:09.418Z,49.30
2019-03-31T21:51:39.077Z,49.20
2019-03-31T21:54:09.708Z,49.20
2019-03-31T21:56:39.446Z,49.00
2019-03-31T21:59:09.159Z,49.00
2019-03-31T22:01:38.868Z,48.90
2019-03-31T22:04:08.585Z,48.90
2019-03-31T22:06:38.317Z,48.80
2019-03-31T22:09:10.019Z,48.80
2019-03-31T22:11:39.676Z,48.70
2019-03-31T22:14:10.697Z,48.70
2019-03-31T22:16:40.636Z,48.60
2019-03-31T22:19:10.288Z,48.50
2019-03-31T22:21:39.928Z,48.50
2019-03-31T22:24:09.577Z,48.50
2019-03-31T22:26:39.396Z,48.40
2019-03-31T22:29:09.060Z,48.40
2019-03-31T22:31:38.692Z,48.40
2019-03-31T22:34:08.346Z,48.30
2019-03-31T22:36:38.090Z,48.30
2019-03-31T22:39:07.831Z,48.10
2019-03-31T22:41:37.577Z,48.10
2019-03-31T22:44:07.290Z,48.10
2019-03-31T22:46:36.953Z,48.00
2019-03-31T22:49:06.706Z,48.00
2019-03-31T22:51:36.348Z,47.90
2019-03-31T22:54:05.998Z,47.90
2019-03-31T22:56:35.700Z,47.90
2019-03-31T22:59:05.350Z,47.80
2019-03-31T23:01:35.016Z,47.80
2019-03-31T23:04:04.690Z,47.70
2019-03-31T23:06:34.493Z,47.70
2019-03-31T23:09:05.236Z,47.60
2019-03-31T23:11:34.889Z,47.60
2019-03-31T23:14:04.556Z,47.50
2019-03-31T23:16:34.438Z,48.00
2019-03-31T23:19:04.082Z,47.50
2019-03-31T23:21:33.724Z,47.30
2019-03-31T23:24:03.366Z,47.30
2019-03-31T23:26:52.119Z,47.30
2019-03-31T23:29:22.115Z,47.20
2019-03-31T23:31:51.780Z,47.20
2019-03-31T23:34:21.431Z,47.30
2019-03-31T23:36:51.133Z,47.10
2019-03-31T23:39:20.803Z,47.10
2019-03-31T23:41:50.447Z,47.00
2019-03-31T23:44:20.090Z,47.70
2019-03-31T23:46:49.757Z,47.00
2019-03-31T23:49:19.409Z,47.00
2019-03-31T23:51:49.045Z,47.00
2019-03-31T23:54:18.680Z,47.00
2019-03-31T23:56:48.400Z,46.90
2019-03-31T23:59:18.045Z,46.90
